createdAt,value
2018-08-06T00:00:52.205Z,0.00
2018-08-06T00:01:52.085Z,0.00
2018-08-06T00:02:51.965Z,0.00
2018-08-06T00:03:51.843Z,0.00
2018-08-06T00:04:51.723Z,0.00
2018-08-06T00:05:51.613Z,0.00
2018-08-06T00:06:51.486Z,0.00
2018-08-06T00:07:51.367Z,0.00
2018-08-06T00:08:51.247Z,0.00
2018-08-06T00:09:51.127Z,0.00
2018-08-06T00:10:51.008Z,0.00
2018-08-06T00:11:52.865Z,0.00
2018-08-06T00:12:50.772Z,0.00
2018-08-06T00:13:50.646Z,0.00
2018-08-06T00:14:50.528Z,0.00
2018-08-06T00:15:50.408Z,0.00
2018-08-06T00:16:50.287Z,0.00
2018-08-06T00:17:50.169Z,0.00
2018-08-06T00:18:50.048Z,0.00
2018-08-06T00:19:49.927Z,0.00
2018-08-06T00:20:49.810Z,0.00
2018-08-06T00:21:49.693Z,0.00
2018-08-06T00:22:49.572Z,0.00
2018-08-06T00:23:49.452Z,0.00
2018-08-06T00:24:50.320Z,0.00
2018-08-06T00:25:49.210Z,0.00
2018-08-06T00:26:49.095Z,0.00
2018-08-06T00:27:48.970Z,0.00
2018-08-06T00:28:50.372Z,0.00
2018-08-06T00:29:48.736Z,0.00
2018-08-06T00:30:48.615Z,0.00
2018-08-06T00:31:48.493Z,0.00
2018-08-06T00:32:48.378Z,0.00
2018-08-06T00:33:48.253Z,0.00
2018-08-06T00:34:48.134Z,0.00
2018-08-06T00:35:48.013Z,0.00
2018-08-06T00:36:47.895Z,0.00
2018-08-06T00:37:47.826Z,0.00
2018-08-06T00:38:47.654Z,0.00
2018-08-06T00:39:47.536Z,0.00
2018-08-06T00:40:47.421Z,0.00
2018-08-06T00:41:47.299Z,0.00
2018-08-06T00:42:47.175Z,0.00
2018-08-06T00:43:47.055Z,0.00
2018-08-06T00:44:46.937Z,0.00
2018-08-06T00:45:46.816Z,0.00
2018-08-06T00:46:46.695Z,0.00
2018-08-06T00:47:46.575Z,0.00
2018-08-06T00:48:46.457Z,0.00
2018-08-06T00:49:46.335Z,0.00
2018-08-06T00:50:46.216Z,0.00
2018-08-06T00:51:46.099Z,0.00
2018-08-06T00:52:45.976Z,0.00
2018-08-06T00:53:46.320Z,0.00
2018-08-06T00:54:45.736Z,0.00
2018-08-06T00:55:45.619Z,0.00
2018-08-06T00:56:45.497Z,0.00
2018-08-06T00:57:45.377Z,0.00
2018-08-06T00:58:45.258Z,0.00
2018-08-06T00:59:45.135Z,0.00
2018-08-06T01:00:45.017Z,0.00
2018-08-06T01:01:44.900Z,0.00
2018-08-06T01:02:44.776Z,0.00
2018-08-06T01:03:44.657Z,0.00
2018-08-06T01:04:44.539Z,0.00
2018-08-06T01:05:44.417Z,0.00
2018-08-06T01:06:44.299Z,0.00
2018-08-06T01:07:44.180Z,0.00
2018-08-06T01:08:45.883Z,0.00
2018-08-06T01:09:43.937Z,0.00
2018-08-06T01:10:43.820Z,0.00
2018-08-06T01:11:43.699Z,0.00
2018-08-06T01:12:43.583Z,0.00
2018-08-06T01:13:43.459Z,0.00
2018-08-06T01:14:43.339Z,0.00
2018-08-06T01:15:43.217Z,0.00
2018-08-06T01:16:43.099Z,0.00
2018-08-06T01:17:42.978Z,0.00
2018-08-06T01:18:42.864Z,0.00
2018-08-06T01:19:42.739Z,0.00
2018-08-06T01:20:42.617Z,0.00
2018-08-06T01:21:42.499Z,0.00
2018-08-06T01:22:42.379Z,0.00
2018-08-06T01:23:42.261Z,0.00
2018-08-06T01:24:42.140Z,0.00
2018-08-06T01:25:42.019Z,0.00
2018-08-06T01:26:41.900Z,0.00
2018-08-06T01:27:41.778Z,0.00
2018-08-06T01:28:41.662Z,0.00
2018-08-06T01:29:41.539Z,0.00
2018-08-06T01:30:41.419Z,0.00
2018-08-06T01:31:41.298Z,0.00
2018-08-06T01:32:41.180Z,0.00
2018-08-06T01:33:41.060Z,0.00
2018-08-06T01:34:42.890Z,0.00
2018-08-06T01:35:40.824Z,0.00
2018-08-06T01:36:40.702Z,0.00
2018-08-06T01:37:42.393Z,0.00
2018-08-06T01:38:40.461Z,0.00
2018-08-06T01:39:40.346Z,0.00
2018-08-06T01:40:40.221Z,0.00
2018-08-06T01:41:40.106Z,0.00
2018-08-06T01:42:39.981Z,0.00
2018-08-06T01:43:39.860Z,0.00
2018-08-06T01:44:39.741Z,0.00
2018-08-06T01:45:39.640Z,0.00
2018-08-06T01:46:39.503Z,0.00
2018-08-06T01:47:39.382Z,0.00
2018-08-06T01:48:39.260Z,0.00
2018-08-06T01:49:39.143Z,0.00
2018-08-06T01:50:39.021Z,0.00
2018-08-06T01:51:38.901Z,0.00
2018-08-06T01:52:39.774Z,0.00
2018-08-06T01:53:38.661Z,0.00
2018-08-06T01:54:38.541Z,0.00
2018-08-06T01:55:38.425Z,0.00
2018-08-06T01:56:39.897Z,0.00
2018-08-06T01:57:38.179Z,0.00
2018-08-06T01:58:38.060Z,0.00
2018-08-06T01:59:39.897Z,0.00
2018-08-06T02:00:37.821Z,0.00
2018-08-06T02:01:37.700Z,0.00
2018-08-06T02:02:37.581Z,0.00
2018-08-06T02:03:37.460Z,0.00
2018-08-06T02:04:37.343Z,0.00
2018-08-06T02:05:37.217Z,0.00
2018-08-06T02:06:37.097Z,0.00
2018-08-06T02:07:36.976Z,0.00
2018-08-06T02:08:36.857Z,0.00
2018-08-06T02:09:36.739Z,0.00
2018-08-06T02:10:36.619Z,0.00
2018-08-06T02:11:36.500Z,0.00
2018-08-06T02:12:36.376Z,0.00
2018-08-06T02:13:36.261Z,0.00
2018-08-06T02:14:36.137Z,0.00
2018-08-06T02:15:36.022Z,0.00
2018-08-06T02:16:35.896Z,0.00
2018-08-06T02:17:35.778Z,0.00
2018-08-06T02:18:35.657Z,0.00
2018-08-06T02:19:35.535Z,0.00
2018-08-06T02:20:35.414Z,0.00
2018-08-06T02:21:35.295Z,0.00
2018-08-06T02:22:35.176Z,0.00
2018-08-06T02:23:35.056Z,0.00
2018-08-06T02:24:34.936Z,0.00
2018-08-06T02:25:34.811Z,0.00
2018-08-06T02:26:34.695Z,0.00
2018-08-06T02:27:36.406Z,0.00
2018-08-06T02:28:34.453Z,0.00
2018-08-06T02:29:34.331Z,0.00
2018-08-06T02:30:34.212Z,0.00
2018-08-06T02:31:34.093Z,0.00
2018-08-06T02:32:33.973Z,0.00
2018-08-06T02:33:33.854Z,0.00
2018-08-06T02:34:33.738Z,0.00
2018-08-06T02:35:33.611Z,0.00
2018-08-06T02:36:33.494Z,0.00
2018-08-06T02:37:33.377Z,0.00
2018-08-06T02:38:33.253Z,0.00
2018-08-06T02:39:33.136Z,0.00
2018-08-06T02:40:33.015Z,0.00
2018-08-06T02:41:32.891Z,0.00
2018-08-06T02:42:32.772Z,0.00
2018-08-06T02:43:32.650Z,0.00
2018-08-06T02:44:32.540Z,0.00
2018-08-06T02:45:32.414Z,0.00
2018-08-06T02:46:32.295Z,0.00
2018-08-06T02:47:32.169Z,0.00
2018-08-06T02:48:32.054Z,0.00
2018-08-06T02:49:31.931Z,0.00
2018-08-06T02:50:32.455Z,0.00
2018-08-06T02:51:31.690Z,0.00
2018-08-06T02:52:31.569Z,0.00
2018-08-06T02:53:31.448Z,0.00
2018-08-06T02:54:32.911Z,0.00
2018-08-06T02:55:31.210Z,0.00
2018-08-06T02:56:31.086Z,0.00
2018-08-06T02:57:30.967Z,0.00
2018-08-06T02:58:30.848Z,0.00
2018-08-06T02:59:30.729Z,0.00
2018-08-06T03:00:30.608Z,0.00
2018-08-06T03:01:30.487Z,0.00
2018-08-06T03:02:30.366Z,0.00
2018-08-06T03:03:30.244Z,0.00
2018-08-06T03:04:30.124Z,0.00
2018-08-06T03:05:30.006Z,0.00
2018-08-06T03:06:29.889Z,0.00
2018-08-06T03:07:29.762Z,0.00
2018-08-06T03:08:29.642Z,0.00
2018-08-06T03:09:31.417Z,0.00
2018-08-06T03:10:29.404Z,0.00
2018-08-06T03:11:29.279Z,0.00
2018-08-06T03:12:29.161Z,0.00
2018-08-06T03:13:29.043Z,0.00
2018-08-06T03:14:28.920Z,0.00
2018-08-06T03:15:28.798Z,0.00
2018-08-06T03:16:28.680Z,0.00
2018-08-06T03:17:28.557Z,0.00
2018-08-06T03:18:28.437Z,0.00
2018-08-06T03:19:28.470Z,0.00
2018-08-06T03:20:28.198Z,0.00
2018-08-06T03:21:28.077Z,0.00
2018-08-06T03:22:27.954Z,0.00
2018-08-06T03:23:27.835Z,0.00
2018-08-06T03:24:27.719Z,0.00
2018-08-06T03:25:27.594Z,0.00
2018-08-06T03:26:27.473Z,0.00
2018-08-06T03:27:27.351Z,0.00
2018-08-06T03:28:27.231Z,0.00
2018-08-06T03:29:27.109Z,0.00
2018-08-06T03:30:26.990Z,0.00
2018-08-06T03:31:26.883Z,0.00
2018-08-06T03:32:26.747Z,0.00
2018-08-06T03:33:26.628Z,0.00
2018-08-06T03:34:26.510Z,0.00
2018-08-06T03:35:26.387Z,0.00
2018-08-06T03:36:26.264Z,0.00
2018-08-06T03:37:26.146Z,0.00
2018-08-06T03:38:26.026Z,0.00
2018-08-06T03:39:25.907Z,0.00
2018-08-06T03:40:25.787Z,0.00
2018-08-06T03:41:25.666Z,0.00
2018-08-06T03:42:25.544Z,0.00
2018-08-06T03:43:25.421Z,0.00
2018-08-06T03:44:25.303Z,0.00
2018-08-06T03:45:25.180Z,4.00
2018-08-06T03:46:25.061Z,4.00
2018-08-06T03:47:24.939Z,4.00
2018-08-06T03:48:24.820Z,0.00
2018-08-06T03:49:24.700Z,4.00
2018-08-06T03:50:24.584Z,4.00
2018-08-06T03:51:24.457Z,8.00
2018-08-06T03:52:24.339Z,8.00
2018-08-06T03:53:24.217Z,8.00
2018-08-06T03:54:24.096Z,8.00
2018-08-06T03:55:23.976Z,8.00
2018-08-06T03:56:23.856Z,8.00
2018-08-06T03:57:23.733Z,16.00
2018-08-06T03:58:23.615Z,12.00
2018-08-06T03:59:23.494Z,16.00
2018-08-06T04:00:23.375Z,20.00
2018-08-06T04:01:23.254Z,20.00
2018-08-06T04:02:23.135Z,20.00
2018-08-06T04:03:23.013Z,24.00
2018-08-06T04:04:22.891Z,28.00
2018-08-06T04:05:22.774Z,32.00
2018-08-06T04:06:22.653Z,36.00
2018-08-06T04:07:22.532Z,44.00
2018-08-06T04:08:22.410Z,48.00
2018-08-06T04:09:22.290Z,48.00
2018-08-06T04:10:22.173Z,52.00
2018-08-06T04:11:22.051Z,56.00
2018-08-06T04:12:21.928Z,64.00
2018-08-06T04:13:21.844Z,68.00
2018-08-06T04:14:21.686Z,76.00
2018-08-06T04:15:21.570Z,80.00
2018-08-06T04:16:21.447Z,88.00
2018-08-06T04:17:21.328Z,96.00
2018-08-06T04:18:21.206Z,104.00
2018-08-06T04:19:21.083Z,108.00
2018-08-06T04:20:20.964Z,116.00
2018-08-06T04:21:20.844Z,128.00
2018-08-06T04:22:20.721Z,136.00
2018-08-06T04:23:20.604Z,140.00
2018-08-06T04:24:20.483Z,152.00
2018-08-06T04:25:20.363Z,156.00
2018-08-06T04:26:20.240Z,168.00
2018-08-06T04:27:20.117Z,176.00
2018-08-06T04:28:19.997Z,184.00
2018-08-06T04:29:19.877Z,196.00
2018-08-06T04:30:19.757Z,208.00
2018-08-06T04:31:19.640Z,216.00
2018-08-06T04:32:19.515Z,228.00
2018-08-06T04:33:19.394Z,236.00
2018-08-06T04:34:19.275Z,240.00
2018-08-06T04:35:19.152Z,244.00
2018-08-06T04:36:19.037Z,252.00
2018-08-06T04:37:18.916Z,256.00
2018-08-06T04:38:18.792Z,260.00
2018-08-06T04:39:18.671Z,264.00
2018-08-06T04:40:18.553Z,272.00
2018-08-06T04:41:18.430Z,276.00
2018-08-06T04:42:18.308Z,284.00
2018-08-06T04:43:18.190Z,296.00
2018-08-06T04:44:18.066Z,308.00
2018-08-06T04:45:17.954Z,328.00
2018-08-06T04:46:17.826Z,344.00
2018-08-06T04:47:18.476Z,360.00
2018-08-06T04:48:17.584Z,368.00
2018-08-06T04:49:17.466Z,368.00
2018-08-06T04:50:17.344Z,368.00
2018-08-06T04:51:17.222Z,372.00
2018-08-06T04:52:17.102Z,384.00
2018-08-06T04:53:16.984Z,396.00
2018-08-06T04:54:16.862Z,416.00
2018-08-06T04:55:16.764Z,440.00
2018-08-06T04:56:16.624Z,452.00
2018-08-06T04:57:16.499Z,472.00
2018-08-06T04:58:16.380Z,480.00
2018-08-06T04:59:16.261Z,488.00
2018-08-06T05:00:16.139Z,500.00
2018-08-06T05:01:16.019Z,504.00
2018-08-06T05:02:15.900Z,508.00
2018-08-06T05:03:15.779Z,512.00
2018-08-06T05:04:15.658Z,516.00
2018-08-06T05:05:15.537Z,520.00
2018-08-06T05:06:15.417Z,524.00
2018-08-06T05:07:16.949Z,524.00
2018-08-06T05:08:15.177Z,528.00
2018-08-06T05:09:15.056Z,528.00
2018-08-06T05:10:14.935Z,532.00
2018-08-06T05:11:14.813Z,540.00
2018-08-06T05:12:14.695Z,564.00
2018-08-06T05:13:14.574Z,572.00
2018-08-06T05:14:14.455Z,584.00
2018-08-06T05:15:14.335Z,592.00
2018-08-06T05:16:14.483Z,600.00
2018-08-06T05:17:14.096Z,612.00
2018-08-06T05:18:13.979Z,616.00
2018-08-06T05:19:13.854Z,632.00
2018-08-06T05:20:13.734Z,640.00
2018-08-06T05:21:13.613Z,648.00
2018-08-06T05:22:13.493Z,644.00
2018-08-06T05:23:13.377Z,636.00
2018-08-06T05:24:13.256Z,668.00
2018-08-06T05:25:13.134Z,692.00
2018-08-06T05:26:13.016Z,708.00
2018-08-06T05:27:12.899Z,712.00
2018-08-06T05:28:12.775Z,720.00
2018-08-06T05:29:12.657Z,736.00
2018-08-06T05:30:12.538Z,740.00
2018-08-06T05:31:12.419Z,748.00
2018-08-06T05:32:12.298Z,760.00
2018-08-06T05:33:12.180Z,768.00
2018-08-06T05:34:12.061Z,776.00
2018-08-06T05:35:11.938Z,780.00
2018-08-06T05:36:11.821Z,792.00
2018-08-06T05:37:11.700Z,800.00
2018-08-06T05:38:11.583Z,800.00
2018-08-06T05:39:11.461Z,804.00
2018-08-06T05:40:12.959Z,808.00
2018-08-06T05:41:11.225Z,816.00
2018-08-06T05:42:11.106Z,820.00
2018-08-06T05:43:10.986Z,824.00
2018-08-06T05:44:10.866Z,832.00
2018-08-06T05:45:10.747Z,840.00
2018-08-06T05:46:10.627Z,848.00
2018-08-06T05:47:10.508Z,852.00
2018-08-06T05:48:10.434Z,860.00
2018-08-06T05:49:10.275Z,864.00
2018-08-06T05:50:10.158Z,872.00
2018-08-06T05:51:10.034Z,880.00
2018-08-06T05:52:09.916Z,884.00
2018-08-06T05:53:09.799Z,888.00
2018-08-06T05:54:09.677Z,896.00
2018-08-06T05:55:09.559Z,904.00
2018-08-06T05:56:10.965Z,912.00
2018-08-06T05:57:09.324Z,920.00
2018-08-06T05:58:09.204Z,932.00
2018-08-06T05:59:09.085Z,936.00
2018-08-06T06:00:09.008Z,940.00
2018-08-06T06:01:08.847Z,944.00
2018-08-06T06:02:08.731Z,948.00
2018-08-06T06:03:08.622Z,948.00
2018-08-06T06:04:08.492Z,956.00
2018-08-06T06:05:08.371Z,960.00
2018-08-06T06:06:08.259Z,964.00
2018-08-06T06:07:08.134Z,972.00
2018-08-06T06:08:08.020Z,976.00
2018-08-06T06:09:07.898Z,984.00
2018-08-06T06:10:07.776Z,988.00
2018-08-06T06:11:07.656Z,996.00
2018-08-06T06:12:07.539Z,992.00
2018-08-06T06:13:07.423Z,1004.00
2018-08-06T06:14:07.305Z,1028.00
2018-08-06T06:15:07.187Z,1032.00
2018-08-06T06:16:07.064Z,1036.00
2018-08-06T06:17:06.948Z,1052.00
2018-08-06T06:18:06.830Z,1048.00
2018-08-06T06:19:06.716Z,1044.00
2018-08-06T06:20:06.590Z,1036.00
2018-08-06T06:21:06.474Z,1024.00
2018-08-06T06:22:06.354Z,1028.00
2018-08-06T06:23:06.237Z,1044.00
2018-08-06T06:24:06.119Z,1072.00
2018-08-06T06:25:06.000Z,1060.00
2018-08-06T06:26:05.883Z,1040.00
2018-08-06T06:27:05.763Z,1020.00
2018-08-06T06:28:05.652Z,976.00
2018-08-06T06:29:05.527Z,940.00
2018-08-06T06:30:05.409Z,944.00
2018-08-06T06:31:05.290Z,1032.00
2018-08-06T06:32:05.175Z,1120.00
2018-08-06T06:33:05.064Z,1144.00
2018-08-06T06:34:04.936Z,1152.00
2018-08-06T06:35:04.817Z,1156.00
2018-08-06T06:36:04.701Z,1160.00
2018-08-06T06:37:04.580Z,1152.00
2018-08-06T06:38:04.468Z,1156.00
2018-08-06T06:39:04.345Z,1160.00
2018-08-06T06:40:04.228Z,1160.00
2018-08-06T06:41:04.110Z,1160.00
2018-08-06T06:42:03.997Z,1176.00
2018-08-06T06:43:03.877Z,1180.00
2018-08-06T06:44:04.519Z,1184.00
2018-08-06T06:45:03.642Z,1192.00
2018-08-06T06:46:03.521Z,1196.00
2018-08-06T06:47:03.406Z,1200.00
2018-08-06T06:48:03.286Z,1196.00
2018-08-06T06:49:03.314Z,1200.00
2018-08-06T06:50:03.055Z,1208.00
2018-08-06T06:51:02.940Z,1212.00
2018-08-06T06:52:02.814Z,1212.00
2018-08-06T06:53:02.697Z,1216.00
2018-08-06T06:54:02.584Z,1228.00
2018-08-06T06:55:02.464Z,1228.00
2018-08-06T06:56:02.349Z,1212.00
2018-08-06T06:57:02.229Z,1184.00
2018-08-06T06:58:02.111Z,1164.00
2018-08-06T06:59:01.992Z,1216.00
2018-08-06T07:00:03.509Z,1208.00
2018-08-06T07:01:01.764Z,1172.00
2018-08-06T07:02:01.643Z,1224.00
2018-08-06T07:03:01.524Z,1248.00
2018-08-06T07:04:01.411Z,1284.00
2018-08-06T07:05:01.302Z,1288.00
2018-08-06T07:06:01.177Z,1296.00
2018-08-06T07:07:01.056Z,1296.00
2018-08-06T07:08:00.938Z,1296.00
2018-08-06T07:09:00.823Z,1296.00
2018-08-06T07:10:00.706Z,1296.00
2018-08-06T07:11:00.591Z,1300.00
2018-08-06T07:12:00.469Z,1276.00
2018-08-06T07:13:00.554Z,1304.00
2018-08-06T07:14:00.292Z,1308.00
2018-08-06T07:15:00.118Z,1308.00
2018-08-06T07:16:00.008Z,1304.00
2018-08-06T07:16:59.883Z,1296.00
2018-08-06T07:17:59.769Z,1288.00
2018-08-06T07:18:59.649Z,1272.00
2018-08-06T07:19:59.531Z,1256.00
2018-08-06T07:20:59.418Z,1220.00
2018-08-06T07:21:59.297Z,1252.00
2018-08-06T07:22:59.182Z,1296.00
2018-08-06T07:23:59.065Z,1284.00
2018-08-06T07:24:58.950Z,1288.00
2018-08-06T07:25:58.898Z,1288.00
2018-08-06T07:26:58.714Z,1296.00
2018-08-06T07:27:58.598Z,1316.00
2018-08-06T07:28:58.480Z,1328.00
2018-08-06T07:29:58.364Z,1336.00
2018-08-06T07:30:58.247Z,1344.00
2018-08-06T07:31:58.129Z,1348.00
2018-08-06T07:32:58.019Z,1352.00
2018-08-06T07:33:57.900Z,1356.00
2018-08-06T07:34:57.777Z,1364.00
2018-08-06T07:35:57.662Z,1364.00
2018-08-06T07:36:57.548Z,1368.00
2018-08-06T07:37:57.427Z,1368.00
2018-08-06T07:38:57.315Z,1368.00
2018-08-06T07:39:57.243Z,1376.00
2018-08-06T07:40:57.081Z,1376.00
2018-08-06T07:41:56.960Z,1380.00
2018-08-06T07:42:56.845Z,1380.00
2018-08-06T07:43:56.728Z,1376.00
2018-08-06T07:44:56.610Z,1372.00
2018-08-06T07:45:56.494Z,1376.00
2018-08-06T07:46:56.394Z,1388.00
2018-08-06T07:47:56.266Z,1388.00
2018-08-06T07:48:56.148Z,1360.00
2018-08-06T07:49:56.064Z,1356.00
2018-08-06T07:50:55.910Z,1376.00
2018-08-06T07:51:55.796Z,1392.00
2018-08-06T07:52:55.677Z,1384.00
2018-08-06T07:53:55.558Z,1392.00
2018-08-06T07:54:55.445Z,1416.00
2018-08-06T07:55:55.327Z,1412.00
2018-08-06T07:56:55.209Z,1412.00
2018-08-06T07:57:55.096Z,1416.00
2018-08-06T07:58:54.978Z,1420.00
2018-08-06T07:59:54.859Z,1428.00
2018-08-06T08:00:54.744Z,1436.00
2018-08-06T08:01:54.629Z,1436.00
2018-08-06T08:02:54.511Z,1448.00
2018-08-06T08:03:54.397Z,1456.00
2018-08-06T08:04:54.280Z,1464.00
2018-08-06T08:05:54.163Z,1468.00
2018-08-06T08:06:54.048Z,1472.00
2018-08-06T08:07:53.934Z,1472.00
2018-08-06T08:08:53.820Z,1476.00
2018-08-06T08:09:53.702Z,1476.00
2018-08-06T08:10:53.586Z,1484.00
2018-08-06T08:11:53.482Z,1496.00
2018-08-06T08:12:53.353Z,1500.00
2018-08-06T08:13:53.236Z,1500.00
2018-08-06T08:14:53.120Z,1504.00
2018-08-06T08:15:53.006Z,1508.00
2018-08-06T08:16:52.888Z,1516.00
2018-08-06T08:17:52.776Z,1512.00
2018-08-06T08:18:52.660Z,1512.00
2018-08-06T08:19:52.588Z,1516.00
2018-08-06T08:20:52.429Z,1520.00
2018-08-06T08:21:52.311Z,1524.00
2018-08-06T08:22:52.197Z,1520.00
2018-08-06T08:23:52.081Z,1524.00
2018-08-06T08:24:51.968Z,1528.00
2018-08-06T08:25:51.855Z,1528.00
2018-08-06T08:26:51.733Z,1532.00
2018-08-06T08:27:51.622Z,1540.00
2018-08-06T08:28:51.510Z,1536.00
2018-08-06T08:29:51.391Z,1540.00
2018-08-06T08:30:51.272Z,1548.00
2018-08-06T08:31:51.159Z,1548.00
2018-08-06T08:32:51.045Z,1552.00
2018-08-06T08:33:50.968Z,1552.00
2018-08-06T08:34:50.817Z,1556.00
2018-08-06T08:35:50.698Z,1556.00
2018-08-06T08:36:50.584Z,1564.00
2018-08-06T08:37:50.469Z,1568.00
2018-08-06T08:38:50.352Z,1568.00
2018-08-06T08:39:50.241Z,1568.00
2018-08-06T08:40:50.554Z,1580.00
2018-08-06T08:41:50.009Z,1584.00
2018-08-06T08:42:49.895Z,1584.00
2018-08-06T08:43:49.780Z,1556.00
2018-08-06T08:44:49.668Z,1560.00
2018-08-06T08:45:49.553Z,1560.00
2018-08-06T08:46:49.437Z,1564.00
2018-08-06T08:47:49.322Z,1568.00
2018-08-06T08:48:49.207Z,1568.00
2018-08-06T08:49:49.093Z,1576.00
2018-08-06T08:50:48.978Z,1584.00
2018-08-06T08:51:48.867Z,1588.00
2018-08-06T08:52:48.758Z,1600.00
2018-08-06T08:53:48.637Z,1604.00
2018-08-06T08:54:48.529Z,1604.00
2018-08-06T08:55:48.410Z,1608.00
2018-08-06T08:56:48.292Z,1608.00
2018-08-06T08:57:48.181Z,1612.00
2018-08-06T08:58:48.158Z,1620.00
2018-08-06T08:59:47.949Z,1620.00
2018-08-06T09:00:47.835Z,1624.00
2018-08-06T09:01:47.723Z,1636.00
2018-08-06T09:02:47.618Z,1640.00
2018-08-06T09:03:47.495Z,1644.00
2018-08-06T09:04:47.379Z,1652.00
2018-08-06T09:05:47.266Z,1660.00
2018-08-06T09:06:47.150Z,1664.00
2018-08-06T09:07:47.042Z,1672.00
2018-08-06T09:08:46.922Z,1676.00
2018-08-06T09:09:46.810Z,1680.00
2018-08-06T09:10:46.696Z,1684.00
2018-08-06T09:11:46.581Z,1684.00
2018-08-06T09:12:46.468Z,1696.00
2018-08-06T09:13:46.355Z,1704.00
2018-08-06T09:14:46.245Z,1712.00
2018-08-06T09:15:46.125Z,1716.00
2018-08-06T09:16:46.012Z,1716.00
2018-08-06T09:17:45.897Z,1716.00
2018-08-06T09:18:45.785Z,1720.00
2018-08-06T09:19:45.669Z,1724.00
2018-08-06T09:20:45.565Z,1728.00
2018-08-06T09:21:45.450Z,1728.00
2018-08-06T09:22:45.329Z,1736.00
2018-08-06T09:23:45.213Z,1744.00
2018-08-06T09:24:45.100Z,1744.00
2018-08-06T09:25:44.989Z,1752.00
2018-08-06T09:26:44.918Z,1760.00
2018-08-06T09:27:44.759Z,1756.00
2018-08-06T09:28:44.649Z,1756.00
2018-08-06T09:29:44.532Z,1768.00
2018-08-06T09:30:44.416Z,1768.00
2018-08-06T09:31:44.310Z,1772.00
2018-08-06T09:32:44.190Z,1780.00
2018-08-06T09:33:44.077Z,1780.00
2018-08-06T09:34:43.961Z,1780.00
2018-08-06T09:35:43.850Z,1788.00
2018-08-06T09:36:43.737Z,1788.00
2018-08-06T09:37:43.621Z,1804.00
2018-08-06T09:38:43.506Z,1812.00
2018-08-06T09:39:43.395Z,1816.00
2018-08-06T09:40:43.279Z,1836.00
2018-08-06T09:41:43.170Z,1844.00
2018-08-06T09:42:43.052Z,1856.00
2018-08-06T09:43:42.938Z,1868.00
2018-08-06T09:44:42.828Z,1880.00
2018-08-06T09:45:42.712Z,1892.00
2018-08-06T09:46:42.608Z,1904.00
2018-08-06T09:47:42.486Z,1928.00
2018-08-06T09:48:42.504Z,1932.00
2018-08-06T09:49:42.256Z,1932.00
2018-08-06T09:50:42.144Z,1952.00
2018-08-06T09:51:42.035Z,1968.00
2018-08-06T09:52:41.919Z,1988.00
2018-08-06T09:53:41.801Z,1996.00
2018-08-06T09:54:41.691Z,2004.00
2018-08-06T09:55:41.574Z,2008.00
2018-08-06T09:56:41.460Z,2028.00
2018-08-06T09:57:41.349Z,2044.00
2018-08-06T09:58:41.235Z,2064.00
2018-08-06T09:59:41.127Z,2076.00
2018-08-06T10:00:41.010Z,2092.00
2018-08-06T10:01:40.895Z,2108.00
2018-08-06T10:02:40.784Z,2112.00
2018-08-06T10:03:40.670Z,2124.00
2018-08-06T10:04:40.557Z,2132.00
2018-08-06T10:05:40.513Z,2144.00
2018-08-06T10:06:40.463Z,2168.00
2018-08-06T10:07:40.220Z,2196.00
2018-08-06T10:08:40.589Z,2224.00
2018-08-06T10:09:40.003Z,2292.00
2018-08-06T10:10:39.878Z,2376.00
2018-08-06T10:11:39.774Z,2516.00
2018-08-06T10:12:39.666Z,2696.00
2018-08-06T10:13:39.540Z,2772.00
2018-08-06T10:14:39.427Z,2708.00
2018-08-06T10:15:39.332Z,2476.00
2018-08-06T10:16:39.203Z,2352.00
2018-08-06T10:17:39.091Z,2356.00
2018-08-06T10:18:38.981Z,2376.00
2018-08-06T10:19:38.920Z,2392.00
2018-08-06T10:20:38.753Z,2424.00
2018-08-06T10:21:38.647Z,2492.00
2018-08-06T10:22:38.528Z,2572.00
2018-08-06T10:23:38.420Z,2672.00
2018-08-06T10:24:38.354Z,2708.00
2018-08-06T10:25:38.200Z,2616.00
2018-08-06T10:26:38.083Z,2568.00
2018-08-06T10:27:37.972Z,2600.00
2018-08-06T10:28:37.857Z,2624.00
2018-08-06T10:29:37.747Z,2648.00
2018-08-06T10:30:37.690Z,2676.00
2018-08-06T10:31:37.523Z,2700.00
2018-08-06T10:32:37.414Z,2744.00
2018-08-06T10:33:37.300Z,2836.00
2018-08-06T10:34:37.190Z,2900.00
2018-08-06T10:35:37.079Z,2880.00
2018-08-06T10:36:36.970Z,2872.00
2018-08-06T10:37:36.856Z,2900.00
2018-08-06T10:38:36.746Z,2880.00
2018-08-06T10:39:36.633Z,2836.00
2018-08-06T10:40:36.524Z,2840.00
2018-08-06T10:41:36.412Z,2828.00
2018-08-06T10:42:36.297Z,2856.00
2018-08-06T10:43:36.196Z,2888.00
2018-08-06T10:44:36.181Z,2936.00
2018-08-06T10:45:35.968Z,3008.00
2018-08-06T10:46:35.855Z,3024.00
2018-08-06T10:47:35.749Z,2992.00
2018-08-06T10:48:35.665Z,2988.00
2018-08-06T10:49:35.528Z,2992.00
2018-08-06T10:50:35.414Z,2996.00
2018-08-06T10:51:35.301Z,3012.00
2018-08-06T10:52:35.193Z,3036.00
2018-08-06T10:53:35.092Z,3056.00
2018-08-06T10:54:34.996Z,3064.00
2018-08-06T10:55:34.979Z,3068.00
2018-08-06T10:56:38.794Z,3080.00
2018-08-06T10:57:34.744Z,3104.00
2018-08-06T10:58:34.538Z,3148.00
2018-08-06T10:59:34.472Z,3172.00
2018-08-06T11:00:34.310Z,3180.00
2018-08-06T11:01:34.203Z,3224.00
2018-08-06T11:02:34.088Z,3300.00
2018-08-06T11:03:33.983Z,3384.00
2018-08-06T11:04:33.868Z,3436.00
2018-08-06T11:05:33.760Z,3504.00
2018-08-06T11:06:33.650Z,3524.00
2018-08-06T11:07:33.541Z,3540.00
2018-08-06T11:08:33.436Z,3536.00
2018-08-06T11:09:33.323Z,3520.00
2018-08-06T11:10:33.209Z,3504.00
2018-08-06T11:11:33.396Z,3492.00
2018-08-06T11:12:32.991Z,3504.00
2018-08-06T11:13:32.880Z,3540.00
2018-08-06T11:14:32.773Z,3568.00
2018-08-06T11:15:32.664Z,3596.00
2018-08-06T11:16:33.113Z,3640.00
2018-08-06T11:17:32.457Z,3680.00
2018-08-06T11:18:32.340Z,3708.00
2018-08-06T11:19:32.226Z,3684.00
2018-08-06T11:20:39.592Z,3536.00
2018-08-06T11:21:32.007Z,3648.00
2018-08-06T11:22:31.897Z,3876.00
2018-08-06T11:23:32.214Z,4012.00
2018-08-06T11:24:31.680Z,4164.00
2018-08-06T11:25:31.576Z,4252.00
2018-08-06T11:26:31.461Z,4208.00
2018-08-06T11:27:31.352Z,4104.00
2018-08-06T11:28:31.312Z,4120.00
2018-08-06T11:29:31.135Z,4128.00
2018-08-06T11:30:31.669Z,4120.00
2018-08-06T11:31:30.918Z,4144.00
2018-08-06T11:32:30.807Z,4192.00
2018-08-06T11:33:30.700Z,4244.00
2018-08-06T11:34:30.590Z,4316.00
2018-08-06T11:35:30.480Z,4360.00
2018-08-06T11:36:30.638Z,4372.00
2018-08-06T11:37:30.265Z,4348.00
2018-08-06T11:38:30.154Z,4364.00
2018-08-06T11:39:30.498Z,4448.00
2018-08-06T11:40:29.936Z,4512.00
2018-08-06T11:41:29.830Z,4592.00
2018-08-06T11:42:29.721Z,4584.00
2018-08-06T11:43:29.612Z,4528.00
2018-08-06T11:44:29.503Z,4532.00
2018-08-06T11:45:29.394Z,4580.00
2018-08-06T11:46:29.286Z,4640.00
2018-08-06T11:47:29.179Z,4700.00
2018-08-06T11:48:29.068Z,4768.00
2018-08-06T11:49:28.967Z,4580.00
2018-08-06T11:50:28.853Z,4268.00
2018-08-06T11:51:28.755Z,4320.00
2018-08-06T11:52:28.637Z,5260.00
2018-08-06T11:53:28.528Z,5388.00
2018-08-06T11:54:28.417Z,5460.00
2018-08-06T11:55:28.310Z,5524.00
2018-08-06T11:56:28.210Z,5584.00
2018-08-06T11:57:28.093Z,5652.00
2018-08-06T11:58:28.014Z,5724.00
2018-08-06T11:59:27.971Z,5812.00
2018-08-06T12:00:27.767Z,5896.00
2018-08-06T12:01:27.658Z,5884.00
2018-08-06T12:02:28.270Z,5828.00
2018-08-06T12:03:27.440Z,5808.00
2018-08-06T12:04:27.334Z,5968.00
2018-08-06T12:05:27.226Z,5992.00
2018-08-06T12:06:30.380Z,5956.00
2018-08-06T12:07:27.011Z,5836.00
2018-08-06T12:08:26.906Z,5868.00
2018-08-06T12:09:26.795Z,5936.00
2018-08-06T12:10:26.688Z,5996.00
2018-08-06T12:11:26.701Z,6080.00
2018-08-06T12:12:26.467Z,6144.00
2018-08-06T12:13:26.368Z,6168.00
2018-08-06T12:14:26.253Z,6156.00
2018-08-06T12:15:26.144Z,6092.00
2018-08-06T12:16:26.063Z,6096.00
2018-08-06T12:17:25.927Z,6140.00
2018-08-06T12:18:25.819Z,6000.00
2018-08-06T12:19:25.708Z,6044.00
2018-08-06T12:20:25.647Z,5960.00
2018-08-06T12:21:25.499Z,6092.00
2018-08-06T12:22:25.385Z,6804.00
2018-08-06T12:23:25.279Z,7136.00
2018-08-06T12:24:25.172Z,7280.00
2018-08-06T12:25:25.066Z,7108.00
2018-08-06T12:26:24.974Z,6556.00
2018-08-06T12:27:24.912Z,5376.00
2018-08-06T12:28:24.742Z,5260.00
2018-08-06T12:29:24.633Z,5216.00
2018-08-06T12:30:24.529Z,5212.00
2018-08-06T12:31:25.140Z,5484.00